Santarem Novo, Brazil
Current Conditions -  °F | °C
As of 7:00 PM on Thursday 18 Dec 2014 (Local Time) from SBBE Reporting Station
Clear Clear  
Wind Chill: 84°   Ceiling: Unl
Heat Index: 91°   Visibility: 6mi
Dew Point: 73°   Wind: 5mph
Humidity: 70%   Direction: 70°ENE
Pressure: 29.77"   Gusts: NA
Location:  0.93°S, 47.4°W
Report Text: SBBE 182200Z 07004KT CAVOK 29/23 Q1008
Loading
Personal Weather Stations






























Interactive Weather Map New forecast layout! Learn more

10-Day Weather Forecast

Advertisements
Track Severe Weather on mobile